Time;durP1;ratioP1;P1;durP2;ratioP2;P2;SDS_P1;SDS_P2;PMS_P1;PMS_P2;Temp;Humidity;BMP_temperature;BMP_pressure;BME280_temperature;BME280_humidity;BME280_pressure;Samples;Min_cycle;Max_cycle;Signal;HPM_P1;HPM_P2
2023/01/24 00:00:04;;;;;;;13.50;4.23;;;;;;;4.17;100.00;-23932.94;5076235;28;20641;-79
2023/01/24 00:02:29;;;;;;;6.10;3.90;;;;;;;4.32;100.00;-23937.06;5074823;28;20184;-78
2023/01/24 00:04:54;;;;;;;8.50;4.67;;;;;;;4.24;100.00;-23934.91;5076128;28;20253;-79
2023/01/24 00:07:20;;;;;;;7.47;3.93;;;;;;;3.91;100.00;-23925.66;5076169;28;20260;-77
2023/01/24 00:09:45;;;;;;;11.03;5.20;;;;;;;4.28;100.00;-23936.06;5076313;28;20622;-80
2023/01/24 00:12:11;;;;;;;11.67;4.80;;;;;;;4.27;100.00;-23935.78;5076091;28;20162;-79
2023/01/24 00:14:36;;;;;;;12.53;4.73;;;;;;;4.23;100.00;-23934.63;5074479;28;20641;-78
2023/01/24 00:17:01;;;;;;;6.87;3.93;;;;;;;4.31;100.00;-23936.91;5073692;28;20268;-78
2023/01/24 00:19:27;;;;;;;12.77;4.43;;;;;;;4.26;100.00;-23935.50;5073926;28;20561;-79
2023/01/24 00:21:52;;;;;;;5.97;3.93;;;;;;;4.27;100.00;-23935.63;5074485;28;20265;-78
2023/01/24 00:24:18;;;;;;;8.40;4.00;;;;;;;3.89;100.00;-23925.09;5074109;28;20668;-79
2023/01/24 00:26:43;;;;;;;8.77;4.83;;;;;;;4.19;100.00;-23933.34;5074440;28;20312;-80
2023/01/24 00:29:08;;;;;;;7.53;4.27;;;;;;;4.27;100.00;-23935.63;5074253;28;20200;-79
2023/01/24 00:31:34;;;;;;;8.90;4.53;;;;;;;4.40;100.00;-23939.47;5073987;28;20170;-77
2023/01/24 00:34:00;;;;;;;7.30;4.50;;;;;;;4.17;100.00;-23932.94;5072984;28;20169;-79
2023/01/24 00:36:26;;;;;;;12.47;5.67;;;;;;;4.08;100.00;-23930.22;5073442;28;20170;-79
2023/01/24 00:38:54;;;;;;;18.73;4.10;;;;;;;4.33;100.00;-23937.34;5074225;28;20181;-79
2023/01/24 00:41:19;;;;;;;6.53;3.53;;;;;;;3.96;100.00;-23927.09;5074559;28;20165;-79
2023/01/24 00:43:45;;;;;;;7.20;4.10;;;;;;;3.97;100.00;-23927.22;5074024;28;20177;-77
2023/01/24 00:46:10;;;;;;;6.37;3.87;;;;;;;4.29;100.00;-23936.34;5072672;28;20178;-78
2023/01/24 00:48:36;;;;;;;11.83;4.10;;;;;;;4.03;100.00;-23928.94;5073720;28;20680;-80
2023/01/24 00:51:02;;;;;;;6.80;3.70;;;;;;;4.19;100.00;-23933.50;5072697;28;20218;-79
2023/01/24 00:53:27;;;;;;;7.43;3.40;;;;;;;4.21;100.00;-23934.06;5073812;28;20253;-80
2023/01/24 00:55:54;;;;;;;10.33;4.13;;;;;;;3.99;100.00;-23927.94;5071582;28;20639;-79
2023/01/24 00:58:20;;;;;;;8.17;3.60;;;;;;;4.30;100.00;-23936.63;5073764;28;20646;-77
2023/01/24 01:00:46;;;;;;;7.27;4.10;;;;;;;4.20;100.00;-23933.78;5073392;28;20192;-79
2023/01/24 01:03:14;;;;;;;11.27;4.67;;;;;;;3.81;100.00;-23922.81;5072576;28;20190;-79
2023/01/24 01:05:40;;;;;;;11.97;4.60;;;;;;;3.78;100.00;-23921.81;5075921;28;20225;-78
2023/01/24 01:08:05;;;;;;;7.00;4.33;;;;;;;3.94;100.00;-23926.38;5076150;28;20166;-77
2023/01/24 01:10:31;;;;;;;12.87;4.63;;;;;;;3.77;100.00;-23921.53;5075268;28;20209;-77
2023/01/24 01:12:56;;;;;;;9.40;4.23;;;;;;;3.96;100.00;-23926.94;5076013;28;20532;-77
2023/01/24 01:15:22;;;;;;;6.87;4.13;;;;;;;3.90;100.00;-23925.38;5080247;28;20198;-76
2023/01/24 01:17:47;;;;;;;8.10;4.17;;;;;;;4.28;100.00;-23935.91;5097118;28;20193;-76
2023/01/24 01:20:13;;;;;;;5.17;3.50;;;;;;;4.00;100.00;-23928.09;5093210;28;20177;-78
2023/01/24 01:22:38;;;;;;;10.70;4.73;;;;;;;4.15;100.00;-23932.22;5094327;28;20174;-79
2023/01/24 01:25:04;;;;;;;15.27;4.13;;;;;;;4.23;100.00;-23934.50;5073574;28;20178;-77
2023/01/24 01:27:29;;;;;;;9.27;5.30;;;;;;;3.91;100.00;-23925.53;5074075;28;20174;-78
2023/01/24 01:29:55;;;;;;;7.70;4.40;;;;;;;4.17;100.00;-23932.94;5072445;28;20190;-79
2023/01/24 01:32:20;;;;;;;6.50;4.07;;;;;;;4.12;100.00;-23931.34;5073755;28;20182;-79
2023/01/24 01:34:46;;;;;;;6.07;3.40;;;;;;;4.03;100.00;-23928.94;5074223;28;20180;-80
2023/01/24 01:37:11;;;;;;;6.33;4.60;;;;;;;3.81;100.00;-23922.66;5072483;28;20628;-76
2023/01/24 01:39:36;;;;;;;10.70;5.60;;;;;;;4.10;100.00;-23930.94;5072964;28;20253;-77
2023/01/24 01:42:02;;;;;;;5.53;3.53;;;;;;;4.15;100.00;-23932.22;5073914;28;20196;-78
2023/01/24 01:44:49;;;;;;;13.10;5.40;;;;;;;4.20;100.00;-23933.63;5073143;28;20181;-78
2023/01/24 01:47:34;;;;;;;9.90;4.23;;;;;;;4.23;100.00;-23934.63;5075061;28;20221;-78
2023/01/24 01:50:14;;;;;;;8.83;4.20;;;;;;;4.21;100.00;-23934.06;5074413;28;20297;-79
2023/01/24 01:52:42;;;;;;;5.33;3.70;;;;;;;4.13;100.00;-23931.66;5074811;28;20170;-77
2023/01/24 01:55:19;;;;;;;6.33;3.90;;;;;;;4.13;100.00;-23931.66;5076875;28;20188;-77
2023/01/24 01:57:47;;;;;;;7.50;4.03;;;;;;;3.70;100.00;-23919.53;5076631;28;20182;-79
2023/01/24 02:00:16;;;;;;;9.17;3.67;;;;;;;4.21;100.00;-23934.06;5078104;28;20166;-77
2023/01/24 02:02:50;;;;;;;7.07;4.20;;;;;;;3.69;100.00;-23919.41;5074988;28;20177;-78
2023/01/24 02:05:20;;;;;;;5.83;4.17;;;;;;;3.69;100.00;-23919.25;5074344;28;20271;-76
2023/01/24 02:08:04;;;;;;;17.90;3.77;;;;;;;4.07;100.00;-23930.06;5072340;28;20220;-75
2023/01/24 02:11:37;;;;;;;11.37;4.77;;;;;;;3.60;100.00;-23916.69;5057062;28;20254;-76
2023/01/24 02:13:15;;;;;;;12.30;3.93;;;;;;;3.80;100.00;-23922.53;5073999;28;20189;-78
2023/01/24 02:18:26;;;;;;;5.13;3.00;;;;;;;4.17;100.00;-23932.94;5073769;28;20241;-78
2023/01/24 02:20:52;;;;;;;4.50;3.73;;;;;;;4.04;100.00;-23929.09;5072946;28;20181;-77
2023/01/24 02:23:55;;;;;;;5.17;3.87;;;;;;;4.09;100.00;-23930.50;5071600;28;20174;-78
2023/01/24 02:26:26;;;;;;;4.67;2.73;;;;;;;4.04;100.00;-23929.22;5073026;28;20180;-77
2023/01/24 02:28:56;;;;;;;7.43;3.67;;;;;;;3.66;100.00;-23918.41;5073009;28;20177;-76
2023/01/24 02:31:23;;;;;;;8.63;4.33;;;;;;;3.85;100.00;-23923.94;5072567;28;20695;-79
2023/01/24 02:33:48;;;;;;;6.13;3.70;;;;;;;3.69;100.00;-23919.25;5072611;28;20564;-79
2023/01/24 02:36:31;;;;;;;7.83;4.30;;;;;;;3.87;100.00;-23924.38;5073070;28;20170;-79
2023/01/24 02:39:11;;;;;;;8.23;4.23;;;;;;;3.74;100.00;-23920.69;5074210;28;20174;-77
2023/01/24 02:41:47;;;;;;;8.83;3.87;;;;;;;3.40;100.00;-23911.28;5079681;28;20504;-78
2023/01/24 02:44:22;;;;;;;6.67;3.47;;;;;;;3.88;100.00;-23924.66;5078657;28;20181;-77
2023/01/24 02:46:48;;;;;;;8.93;3.43;;;;;;;3.67;100.00;-23918.81;5078122;28;20231;-79
2023/01/24 02:49:13;;;;;;;7.83;3.23;;;;;;;3.37;100.00;-23910.41;5078870;28;20174;-77
2023/01/24 02:54:23;;;;;;;5.33;3.13;;;;;;;3.62;100.00;-23917.41;5079880;28;20184;-80
2023/01/24 02:59:32;;;;;;;15.20;4.33;;;;;;;3.81;100.00;-23922.81;5080858;28;20273;-79
2023/01/24 03:01:57;;;;;;;5.63;3.27;;;;;;;3.48;100.00;-23913.41;5077522;28;20189;-77
2023/01/24 03:04:23;;;;;;;9.77;4.07;;;;;;;3.83;100.00;-23923.25;5071806;28;20633;-79
2023/01/24 03:06:48;;;;;;;6.33;4.20;;;;;;;3.56;100.00;-23915.69;5070051;28;20221;-78
2023/01/24 03:09:18;;;;;;;9.63;4.43;;;;;;;3.70;100.00;-23919.53;5070695;28;20174;-79
2023/01/24 03:11:48;;;;;;;5.27;3.10;;;;;;;3.48;100.00;-23913.56;5071736;28;20181;-78
2023/01/24 03:36:06;;;;;;;10.07;3.67;;;;;;;3.61;100.00;-23916.97;5075076;28;20675;-79
2023/01/24 03:41:16;;;;;;;8.80;4.63;;;;;;;3.10;100.00;-23902.72;5075003;28;20247;-77
2023/01/24 03:43:43;;;;;;;9.07;4.60;;;;;;;3.66;100.00;-23918.41;5075357;28;20202;-76
2023/01/24 03:46:09;;;;;;;7.87;4.27;;;;;;;3.61;100.00;-23917.13;5075341;28;20176;-78
2023/01/24 03:48:36;;;;;;;9.60;3.30;;;;;;;3.49;100.00;-23913.84;5073894;28;20186;-77
2023/01/24 03:53:47;;;;;;;6.37;3.13;;;;;;;3.29;100.00;-23908.13;5074588;28;20165;-79
2023/01/24 03:56:12;;;;;;;8.20;3.87;;;;;;;3.39;100.00;-23910.84;5073879;28;20186;-79
2023/01/24 03:58:38;;;;;;;10.40;3.67;;;;;;;3.32;100.00;-23909.00;5075459;28;20182;-77
2023/01/24 04:01:03;;;;;;;6.50;4.30;;;;;;;3.36;100.00;-23910.00;5075047;28;20244;-76
2023/01/24 04:03:30;;;;;;;4.83;3.63;;;;;;;3.48;100.00;-23913.56;5073587;28;20676;-77
2023/01/24 04:05:56;;;;;;;8.27;4.20;;;;;;;3.12;100.00;-23903.28;5074728;28;20218;-77
2023/01/24 04:08:21;;;;;;;9.57;3.10;;;;;;;3.38;100.00;-23910.69;5074946;28;20174;-77
2023/01/24 04:10:47;;;;;;;5.10;3.43;;;;;;;3.03;100.00;-23900.72;5074506;28;20288;-77
2023/01/24 04:13:12;;;;;;;4.83;3.27;;;;;;;3.31;100.00;-23908.56;5073156;28;20177;-79
2023/01/24 04:15:38;;;;;;;8.50;4.10;;;;;;;2.99;100.00;-23899.56;5074449;28;20203;-78
2023/01/24 04:18:05;;;;;;;3.63;2.53;;;;;;;2.96;100.00;-23898.72;5073168;28;20235;-76
2023/01/24 04:20:34;;;;;;;11.60;3.33;;;;;;;2.78;100.00;-23893.59;5073962;28;20181;-76
2023/01/24 04:23:01;;;;;;;6.20;3.53;;;;;;;2.89;100.00;-23896.88;5066832;28;20182;-78
2023/01/24 04:25:27;;;;;;;12.03;4.30;;;;;;;3.08;100.00;-23902.16;5067682;28;20183;-79
2023/01/24 04:27:52;;;;;;;4.63;3.50;;;;;;;3.15;100.00;-23904.13;5075739;28;20195;-76
2023/01/24 04:30:18;;;;;;;11.00;3.83;;;;;;;2.70;100.00;-23891.44;5067437;28;20214;-78
2023/01/24 04:32:44;;;;;;;4.63;3.67;;;;;;;3.28;100.00;-23907.84;5068424;28;20194;-75
2023/01/24 04:35:16;;;;;;;11.10;3.90;;;;;;;3.24;100.00;-23906.56;5072349;28;20186;-78
2023/01/24 04:37:41;;;;;;;8.03;3.87;;;;;;;3.11;100.00;-23903.00;5069432;28;20672;-77
2023/01/24 04:40:10;;;;;;;15.57;4.27;;;;;;;3.15;100.00;-23904.00;4687211;28;20839;-78
2023/01/24 04:42:37;;;;;;;6.23;4.03;;;;;;;3.27;100.00;-23907.56;4588628;28;20189;-76
2023/01/24 04:45:03;;;;;;;4.17;3.40;;;;;;;3.22;100.00;-23906.13;5067952;28;20289;-77
2023/01/24 04:47:28;;;;;;;6.13;3.13;;;;;;;3.16;100.00;-23904.44;5067259;28;20177;-77
2023/01/24 04:49:54;;;;;;;10.20;3.90;;;;;;;3.06;100.00;-23901.56;5065677;28;20283;-78
2023/01/24 04:52:19;;;;;;;9.37;3.70;;;;;;;2.81;100.00;-23894.44;5066395;28;20637;-76
2023/01/24 04:54:45;;;;;;;7.30;4.37;;;;;;;2.75;100.00;-23892.72;5066542;28;20213;-75
2023/01/24 04:57:11;;;;;;;11.77;4.33;;;;;;;2.84;100.00;-23895.28;5066107;28;20178;-76
2023/01/24 04:59:37;;;;;;;4.40;3.43;;;;;;;2.72;100.00;-23892.03;5066960;28;20178;-78
2023/01/24 05:02:04;;;;;;;8.17;3.67;;;;;;;3.14;100.00;-23903.84;5067487;28;20186;-76
2023/01/24 05:04:30;;;;;;;8.43;3.77;;;;;;;3.15;100.00;-23904.00;5066740;28;20710;-77
2023/01/24 05:06:55;;;;;;;5.37;3.50;;;;;;;2.96;100.00;-23898.88;5065250;28;20218;-78
2023/01/24 05:09:21;;;;;;;6.50;3.30;;;;;;;3.12;100.00;-23903.28;5067402;28;20200;-77
2023/01/24 05:11:46;;;;;;;6.00;4.10;;;;;;;2.99;100.00;-23899.56;5066747;28;20562;-77
2023/01/24 05:14:12;;;;;;;7.47;4.47;;;;;;;3.21;100.00;-23905.84;5066012;28;20257;-77
2023/01/24 05:16:37;;;;;;;9.33;5.07;;;;;;;3.17;100.00;-23904.56;5064159;28;20182;-76
2023/01/24 05:19:04;;;;;;;3.20;2.90;;;;;;;2.68;100.00;-23891.00;5066744;28;20192;-77
2023/01/24 05:21:30;;;;;;;9.73;3.77;;;;;;;3.16;100.00;-23904.28;5065713;28;20178;-77
2023/01/24 05:23:55;;;;;;;7.37;3.30;;;;;;;2.95;100.00;-23898.44;5072776;28;20188;-77
2023/01/24 05:26:24;;;;;;;6.13;3.73;;;;;;;2.56;100.00;-23887.59;5069139;28;20194;-76
2023/01/24 05:28:50;;;;;;;9.27;3.97;;;;;;;2.80;100.00;-23894.31;5067290;28;20178;-79
2023/01/24 05:31:16;;;;;;;3.93;3.30;;;;;;;2.86;100.00;-23896.00;5071260;28;20193;-77
2023/01/24 05:33:42;;;;;;;8.40;3.67;;;;;;;2.99;100.00;-23899.56;5072287;28;20717;-76
2023/01/24 05:36:13;;;;;;;6.70;3.87;;;;;;;3.04;100.00;-23901.00;5071251;28;20280;-78
2023/01/24 05:38:38;;;;;;;7.67;3.83;;;;;;;3.02;100.00;-23900.44;5073018;28;20161;-76
2023/01/24 05:41:06;;;;;;;6.63;3.50;;;;;;;2.99;100.00;-23899.72;5070992;28;20185;-75
2023/01/24 05:43:32;;;;;;;4.13;2.90;;;;;;;2.71;100.00;-23891.59;5070683;28;20251;-77
2023/01/24 05:46:20;;;;;;;6.03;3.30;;;;;;;2.66;100.00;-23890.44;5072521;28;20644;-78
2023/01/24 05:48:47;;;;;;;4.73;3.97;;;;;;;2.64;100.00;-23889.72;5071284;28;20190;-77
2023/01/24 05:51:16;;;;;;;3.47;2.80;;;;;;;2.64;100.00;-23889.72;5072473;28;20190;-80
2023/01/24 05:53:43;;;;;;;5.23;3.77;;;;;;;2.91;100.00;-23897.44;5071211;28;20185;-81
2023/01/24 05:56:14;;;;;;;2.80;2.60;;;;;;;2.79;100.00;-23893.88;5071085;28;20197;-80
2023/01/24 05:58:41;;;;;;;4.30;3.07;;;;;;;2.79;100.00;-23893.88;5071008;28;20176;-79
2023/01/24 06:01:08;;;;;;;8.03;3.70;;;;;;;2.54;100.00;-23887.03;5071428;28;20174;-78
2023/01/24 06:03:37;;;;;;;5.43;2.87;;;;;;;2.64;100.00;-23889.72;5070873;28;20269;-79
2023/01/24 06:06:02;;;;;;;5.53;3.40;;;;;;;2.49;100.00;-23885.44;5072713;28;20228;-77
2023/01/24 06:08:28;;;;;;;4.30;3.00;;;;;;;2.87;100.00;-23896.28;5070986;28;20178;-80
2023/01/24 06:10:53;;;;;;;14.17;4.50;;;;;;;2.86;100.00;-23895.88;5070755;28;20289;-78
2023/01/24 06:13:18;;;;;;;5.80;3.37;;;;;;;3.06;100.00;-23901.72;5071537;28;20173;-77
2023/01/24 06:15:44;;;;;;;7.27;3.53;;;;;;;2.90;100.00;-23897.00;5071702;28;20181;-79
2023/01/24 06:18:14;;;;;;;6.57;2.87;;;;;;;3.09;100.00;-23902.56;5070699;28;20174;-79
2023/01/24 06:20:40;;;;;;;4.57;2.90;;;;;;;2.51;100.00;-23886.16;5070605;28;20178;-78
2023/01/24 06:23:07;;;;;;;5.40;2.90;;;;;;;2.90;100.00;-23897.16;5070769;28;20170;-79
2023/01/24 06:25:33;;;;;;;7.87;3.03;;;;;;;3.05;100.00;-23901.28;5070816;28;20174;-79
2023/01/24 06:27:59;;;;;;;6.33;3.83;;;;;;;2.94;100.00;-23898.16;5069051;28;20267;-76
2023/01/24 06:30:25;;;;;;;4.33;3.10;;;;;;;2.84;100.00;-23895.44;5071337;28;20244;-76
2023/01/24 06:33:22;;;;;;;4.57;3.40;;;;;;;3.02;100.00;-23900.44;5070340;28;20202;-78
2023/01/24 06:36:32;;;;;;;4.10;3.50;;;;;;;3.00;100.00;-23900.00;5070076;28;20266;-78
2023/01/24 06:38:58;;;;;;;6.80;3.40;;;;;;;2.66;100.00;-23890.44;5052095;28;20190;-77
2023/01/24 06:41:24;;;;;;;4.53;3.37;;;;;;;2.76;100.00;-23893.00;5071461;28;20551;-76
2023/01/24 06:43:49;;;;;;;4.90;3.20;;;;;;;2.76;100.00;-23893.16;5071241;28;20219;-75
2023/01/24 06:46:15;;;;;;;4.73;3.50;;;;;;;2.77;100.00;-23893.31;5070061;28;20182;-77
2023/01/24 06:48:44;;;;;;;9.70;3.97;;;;;;;2.91;100.00;-23897.44;5069487;28;20181;-77
2023/01/24 06:51:13;;;;;;;6.33;3.70;;;;;;;2.87;100.00;-23896.28;5069897;28;20216;-75
2023/01/24 06:53:38;;;;;;;6.73;3.60;;;;;;;2.91;100.00;-23897.28;5070153;28;20243;-77
2023/01/24 06:56:04;;;;;;;3.77;3.40;;;;;;;2.82;100.00;-23894.88;5071618;28;20271;-78
2023/01/24 06:58:30;;;;;;;6.63;3.37;;;;;;;2.72;100.00;-23891.88;5069313;28;20177;-80
2023/01/24 07:00:55;;;;;;;7.13;3.67;;;;;;;2.96;100.00;-23898.88;4959397;28;20189;-80
2023/01/24 07:03:20;;;;;;;5.33;3.53;;;;;;;2.98;100.00;-23899.28;5073892;28;20184;-82
2023/01/24 07:05:47;;;;;;;3.70;3.17;;;;;;;2.53;100.00;-23886.75;5075881;28;20220;-77
2023/01/24 07:08:13;;;;;;;4.43;3.27;;;;;;;2.86;100.00;-23895.88;5075532;28;20272;-78
2023/01/24 07:10:39;;;;;;;8.83;4.27;;;;;;;2.82;100.00;-23894.72;5074511;28;20301;-81
2023/01/24 07:13:05;;;;;;;9.43;3.30;;;;;;;3.04;100.00;-23901.00;5075486;28;20562;-79
2023/01/24 07:15:30;;;;;;;5.17;2.70;;;;;;;2.89;100.00;-23896.72;5074525;28;20177;-78
2023/01/24 07:17:56;;;;;;;9.17;3.90;;;;;;;3.09;100.00;-23902.44;5074141;28;20178;-78
2023/01/24 07:20:22;;;;;;;3.97;3.17;;;;;;;3.04;100.00;-23901.16;5074224;28;20196;-78
2023/01/24 07:22:48;;;;;;;3.90;3.03;;;;;;;2.97;100.00;-23899.00;5075550;28;20581;-78
2023/01/24 07:25:15;;;;;;;6.17;4.40;;;;;;;2.71;100.00;-23891.59;5074028;28;20546;-80
2023/01/24 07:27:42;;;;;;;3.57;3.03;;;;;;;2.99;100.00;-23899.56;5074031;28;20189;-76
2023/01/24 07:30:09;;;;;;;7.90;3.33;;;;;;;3.02;100.00;-23900.44;5073758;28;20205;-80
2023/01/24 07:32:34;;;;;;;4.87;3.30;;;;;;;2.91;100.00;-23897.44;5073506;28;20274;-81
2023/01/24 07:35:00;;;;;;;7.73;3.30;;;;;;;3.04;100.00;-23901.00;5074127;28;20178;-82
2023/01/24 07:37:25;;;;;;;4.00;2.70;;;;;;;2.93;100.00;-23897.88;5074483;28;20269;-77
2023/01/24 07:39:50;;;;;;;7.87;2.90;;;;;;;2.97;100.00;-23899.00;5073700;28;20221;-80
2023/01/24 07:42:16;;;;;;;5.87;3.70;;;;;;;2.62;100.00;-23889.31;5073857;28;20265;-77
2023/01/24 07:44:41;;;;;;;8.17;3.40;;;;;;;3.18;100.00;-23904.84;5075337;28;20260;-78
2023/01/24 07:47:07;;;;;;;3.40;2.90;;;;;;;3.09;100.00;-23902.56;5073376;28;20228;-78
2023/01/24 07:49:32;;;;;;;5.47;2.60;;;;;;;3.10;100.00;-23902.72;5075366;28;20197;-79
2023/01/24 07:51:58;;;;;;;3.47;2.73;;;;;;;2.72;100.00;-23891.88;5073576;28;20170;-80
2023/01/24 07:54:23;;;;;;;2.90;2.60;;;;;;;2.84;100.00;-23895.44;5073362;28;20185;-78
2023/01/24 07:56:48;;;;;;;7.30;3.63;;;;;;;3.28;100.00;-23907.72;5074333;28;20546;-78
2023/01/24 07:59:14;;;;;;;2.90;2.63;;;;;;;3.22;100.00;-23906.00;5075124;28;20264;-79
2023/01/24 08:01:40;;;;;;;4.53;2.70;;;;;;;3.07;100.00;-23902.00;5071712;28;20213;-79
2023/01/24 08:04:06;;;;;;;11.63;3.77;;;;;;;3.32;100.00;-23909.00;5073415;28;20268;-78
2023/01/24 08:06:31;;;;;;;6.53;2.27;;;;;;;3.24;100.00;-23906.72;5074715;28;20379;-78
2023/01/24 08:08:56;;;;;;;3.83;3.20;;;;;;;3.27;100.00;-23907.56;5074515;28;20162;-80
2023/01/24 08:11:23;;;;;;;7.23;3.17;;;;;;;3.01;100.00;-23900.28;5072861;28;20297;-81
2023/01/24 08:13:50;;;;;;;2.93;2.63;;;;;;;3.36;100.00;-23910.00;5073482;28;20178;-79
2023/01/24 08:16:15;;;;;;;10.10;3.37;;;;;;;3.25;100.00;-23907.00;5073208;28;20265;-78
2023/01/24 08:18:41;;;;;;;4.93;2.57;;;;;;;3.31;100.00;-23908.56;5073195;28;20678;-79
2023/01/24 08:21:07;;;;;;;3.10;2.03;;;;;;;3.25;100.00;-23907.00;5073215;28;20201;-80
2023/01/24 08:23:33;;;;;;;4.57;2.63;;;;;;;3.44;100.00;-23912.41;5073646;28;20558;-78
2023/01/24 08:26:00;;;;;;;3.80;2.33;;;;;;;3.35;100.00;-23909.69;5074455;28;20172;-79
2023/01/24 08:28:26;;;;;;;4.00;2.20;;;;;;;3.40;100.00;-23911.28;5072970;28;20193;-80
2023/01/24 08:30:51;;;;;;;6.47;2.93;;;;;;;3.41;100.00;-23911.41;5072921;28;20302;-77
2023/01/24 08:33:17;;;;;;;4.77;3.10;;;;;;;3.50;100.00;-23914.13;5074580;28;20170;-81
2023/01/24 08:35:43;;;;;;;3.33;3.03;;;;;;;3.60;100.00;-23916.69;5074930;28;20505;-80
2023/01/24 08:38:09;;;;;;;4.13;2.93;;;;;;;3.53;100.00;-23914.84;5076617;28;20289;-78
2023/01/24 08:40:36;;;;;;;4.63;2.93;;;;;;;3.61;100.00;-23916.97;5083614;28;20243;-78
2023/01/24 08:43:02;;;;;;;3.53;2.30;;;;;;;3.57;100.00;-23915.97;5083559;28;20228;-77
2023/01/24 08:45:27;;;;;;;5.73;3.23;;;;;;;3.48;100.00;-23913.41;5084560;28;20178;-77
2023/01/24 08:47:53;;;;;;;4.00;2.73;;;;;;;3.61;100.00;-23916.97;5083158;28;20562;-77
2023/01/24 08:50:19;;;;;;;3.27;2.70;;;;;;;3.56;100.00;-23915.81;5083666;28;20201;-80
2023/01/24 08:52:45;;;;;;;8.77;3.00;;;;;;;3.42;100.00;-23911.84;5088812;28;20616;-79
2023/01/24 08:55:11;;;;;;;6.07;2.80;;;;;;;3.54;100.00;-23915.25;5097329;28;20212;-80
2023/01/24 08:57:36;;;;;;;7.30;3.67;;;;;;;3.53;100.00;-23914.97;5074941;28;20182;-80
2023/01/24 09:00:02;;;;;;;4.20;3.00;;;;;;;3.73;100.00;-23920.53;5073479;28;20185;-81
2023/01/24 09:02:29;;;;;;;3.23;2.43;;;;;;;3.66;100.00;-23918.41;5072857;28;20556;-80
2023/01/24 09:04:54;;;;;;;4.70;2.90;;;;;;;3.90;100.00;-23925.38;5077610;28;20173;-81
2023/01/24 09:07:20;;;;;;;3.73;3.03;;;;;;;3.89;100.00;-23925.09;5075539;28;20173;-82
2023/01/24 09:09:45;;;;;;;3.53;2.33;;;;;;;3.74;100.00;-23920.69;5076641;28;20732;-77
2023/01/24 09:12:11;;;;;;;4.97;2.70;;;;;;;3.48;100.00;-23913.56;5075452;28;20192;-82
2023/01/24 09:14:36;;;;;;;2.90;2.27;;;;;;;3.64;100.00;-23917.97;5073185;28;20189;-77
2023/01/24 09:17:01;;;;;;;3.20;2.70;;;;;;;3.72;100.00;-23920.09;5074443;28;20213;-79
2023/01/24 09:19:27;;;;;;;4.20;2.60;;;;;;;3.68;100.00;-23918.97;5073457;28;20578;-82
2023/01/24 09:21:56;;;;;;;4.77;2.97;;;;;;;3.51;100.00;-23914.41;5074522;28;20218;-80
2023/01/24 09:24:22;;;;;;;4.73;2.60;;;;;;;3.56;100.00;-23915.81;5073222;28;20196;-78
2023/01/24 09:26:47;;;;;;;4.27;2.53;;;;;;;3.80;100.00;-23922.53;5072080;28;20182;-79
2023/01/24 09:29:12;;;;;;;6.00;2.30;;;;;;;3.74;100.00;-23920.81;5072514;28;20560;-80
2023/01/24 09:31:38;;;;;;;2.37;2.10;;;;;;;3.85;100.00;-23923.94;5073413;28;20198;-78
2023/01/24 09:34:03;;;;;;;3.97;2.93;;;;;;;3.89;100.00;-23925.09;5072271;28;20182;-82
2023/01/24 09:36:29;;;;;;;4.70;3.30;;;;;;;3.99;100.00;-23927.81;5072907;28;20644;-80
2023/01/24 09:38:56;;;;;;;3.77;2.73;;;;;;;4.12;100.00;-23931.50;5072176;28;20667;-79
2023/01/24 09:41:31;;;;;;;4.10;2.97;;;;;;;4.47;100.00;-23941.31;5072223;28;20174;-78
2023/01/24 09:44:00;;;;;;;4.73;3.00;;;;;;;4.43;100.00;-23940.34;5073642;28;20231;-80
2023/01/24 09:46:31;;;;;;;7.07;3.57;;;;;;;4.25;100.00;-23935.06;5073998;28;20641;-79
2023/01/24 09:49:32;;;;;;;5.27;3.17;;;;;;;4.53;100.00;-23943.03;5073374;28;20204;-83
2023/01/24 09:51:58;;;;;;;9.20;3.50;;;;;;;4.43;100.00;-23940.19;5071466;28;20178;-78
2023/01/24 09:54:38;;;;;;;4.60;2.77;;;;;;;4.10;100.00;-23930.78;5074175;28;20170;-79
2023/01/24 09:57:18;;;;;;;4.80;3.40;;;;;;;3.92;100.00;-23925.81;5071233;28;20184;-82
2023/01/24 09:59:50;;;;;;;5.10;2.40;;;;;;;4.20;100.00;-23933.78;5073579;28;20181;-81
2023/01/24 10:02:18;;;;;;;4.17;3.30;;;;;;;4.17;100.00;-23932.78;5071890;28;20657;-80
2023/01/24 10:04:45;;;;;;;4.33;2.37;;;;;;;4.04;100.00;-23929.22;5071940;28;20173;-79
2023/01/24 10:07:28;;;;;;;8.40;2.90;;;;;;;4.08;100.00;-23930.38;5071604;28;20236;-80
2023/01/24 10:10:28;;;;;;;2.77;2.57;;;;;;;4.51;100.00;-23942.47;5073440;28;20200;-80
2023/01/24 10:13:37;;;;;;;4.17;2.77;;;;;;;4.55;100.00;-23943.47;5048976;28;21313;-80
2023/01/24 10:16:40;;;;;;;2.80;2.23;;;;;;;4.64;100.00;-23946.16;5048819;28;20657;-81
2023/01/24 10:19:43;;;;;;;3.97;2.23;;;;;;;4.82;100.00;-23951.16;5050829;28;20179;-83
2023/01/24 10:22:23;;;;;;;3.90;2.57;;;;;;;4.91;100.00;-23953.72;5049158;28;20154;-79
2023/01/24 10:25:18;;;;;;;4.50;3.13;;;;;;;4.41;100.00;-23939.75;5049194;28;20175;-82
2023/01/24 10:27:47;;;;;;;2.83;2.40;;;;;;;4.66;100.00;-23946.59;5049824;28;20174;-81
2023/01/24 10:30:35;;;;;;;3.17;2.70;;;;;;;4.62;100.00;-23945.47;5046548;28;20174;-82
2023/01/24 10:33:04;;;;;;;4.77;3.00;;;;;;;4.73;100.00;-23948.72;5049710;28;20236;-81
2023/01/24 10:35:37;;;;;;;3.87;2.67;;;;;;;4.66;100.00;-23946.59;5032747;28;20647;-79
2023/01/24 10:38:11;;;;;;;4.20;2.30;;;;;;;4.81;100.00;-23950.84;5027503;28;20172;-80
2023/01/24 10:40:56;;;;;;;3.23;2.30;;;;;;;4.74;100.00;-23949.00;5034901;28;20167;-75
2023/01/24 10:43:24;;;;;;;2.67;2.30;;;;;;;4.65;100.00;-23946.31;5048256;28;20181;-76
2023/01/24 10:46:18;;;;;;;2.57;1.93;;;;;;;5.06;100.00;-23957.97;5048096;28;20178;-76
2023/01/24 10:48:52;;;;;;;2.40;2.20;;;;;;;4.75;100.00;-23949.16;5048018;28;20171;-73
2023/01/24 10:51:20;;;;;;;2.93;2.57;;;;;;;5.14;100.00;-23960.25;5043555;28;20272;-75
2023/01/24 10:53:46;;;;;;;2.77;2.50;;;;;;;5.13;100.00;-23959.97;5036526;28;20175;-76
2023/01/24 10:56:15;;;;;;;4.37;2.73;;;;;;;5.22;100.00;-23962.38;5027874;28;20191;-74
2023/01/24 10:58:54;;;;;;;2.70;2.20;;;;;;;4.47;100.00;-23941.31;5028093;28;20206;-75
2023/01/24 11:01:23;;;;;;;2.43;2.13;;;;;;;4.66;100.00;-23946.75;5028057;28;20190;-77
2023/01/24 11:03:50;;;;;;;2.73;2.43;;;;;;;5.12;100.00;-23959.69;5028194;28;20163;-76
2023/01/24 11:06:30;;;;;;;3.67;2.40;;;;;;;5.20;100.00;-23961.81;5028333;28;20750;-78
2023/01/24 11:09:13;;;;;;;4.63;3.20;;;;;;;5.22;100.00;-23962.53;5028222;28;20160;-74
2023/01/24 11:11:54;;;;;;;2.57;1.90;;;;;;;4.89;100.00;-23953.13;5027761;28;20231;-76
2023/01/24 11:14:22;;;;;;;3.37;2.10;;;;;;;4.85;100.00;-23952.16;5027962;28;20186;-78
2023/01/24 11:16:51;;;;;;;2.67;2.20;;;;;;;4.85;100.00;-23952.16;5027452;28;20580;-76
2023/01/24 11:19:29;;;;;;;3.57;2.40;;;;;;;4.79;100.00;-23950.44;5027739;28;20179;-75
2023/01/24 11:21:58;;;;;;;2.77;2.20;;;;;;;4.56;100.00;-23943.88;5028002;28;20171;-78
2023/01/24 11:24:24;;;;;;;2.43;2.20;;;;;;;5.14;100.00;-23960.09;5016335;28;20778;-75
2023/01/24 11:26:55;;;;;;;3.27;2.33;;;;;;;4.73;100.00;-23948.59;5015795;28;20705;-75
2023/01/24 11:29:22;;;;;;;4.37;2.70;;;;;;;4.77;100.00;-23949.72;5015626;28;20198;-74
2023/01/24 11:31:56;;;;;;;4.40;2.70;;;;;;;4.92;100.00;-23954.00;5014850;28;20224;-77
2023/01/24 11:34:36;;;;;;;3.30;2.33;;;;;;;5.27;100.00;-23963.81;5014946;28;20270;-77
2023/01/24 11:37:29;;;;;;;3.03;2.50;;;;;;;5.61;100.00;-23973.34;5014218;28;20242;-76
2023/01/24 11:40:23;;;;;;;2.50;2.27;;;;;;;5.23;100.00;-23962.81;5014256;28;20168;-73
2023/01/24 11:43:27;;;;;;;4.00;2.43;;;;;;;5.60;100.00;-23973.19;5013780;28;20172;-75
2023/01/24 11:46:29;;;;;;;3.77;2.23;;;;;;;5.42;100.00;-23968.06;5013444;28;20188;-76
2023/01/24 11:49:10;;;;;;;3.43;2.50;;;;;;;5.63;100.00;-23973.91;5013707;28;20172;-77
2023/01/24 11:51:54;;;;;;;5.33;3.23;;;;;;;5.84;100.00;-23979.72;5014248;28;20200;-74
2023/01/24 11:54:34;;;;;;;4.37;3.17;;;;;;;6.19;100.00;-23989.81;5014500;28;20160;-77
2023/01/24 11:57:21;;;;;;;3.03;2.73;;;;;;;6.22;100.00;-23990.66;5014775;28;20259;-76
2023/01/24 12:00:03;;;;;;;2.37;2.17;;;;;;;5.85;100.00;-23980.00;5012555;28;20559;-74
2023/01/24 12:02:37;;;;;;;4.00;2.67;;;;;;;6.22;100.00;-23990.66;5013674;28;20263;-74
2023/01/24 12:05:14;;;;;;;3.13;2.47;;;;;;;6.07;100.00;-23986.25;5014340;28;20635;-76
2023/01/24 12:08:30;;;;;;;3.00;2.60;;;;;;;6.36;100.00;-23994.34;5014545;28;20263;-73
2023/01/24 12:11:11;;;;;;;3.27;2.80;;;;;;;6.31;100.00;-23992.94;5011433;28;20234;-75